Time;durP1;ratioP1;P1;durP2;ratioP2;P2;SDS_P1;SDS_P2;PMS_P1;PMS_P2;Temp;Humidity;BMP_temperature;BMP_pressure;BME280_temperature;BME280_humidity;BME280_pressure;Samples;Min_cycle;Max_cycle;Signal;HPM_P1;HPM_P2
2022/10/17 00:00:51;;;;;;;11.40;9.52;;;15.60;99.90;;;;;;5113592;28;20196;-49
2022/10/17 00:03:17;;;;;;;11.75;9.82;;;15.70;99.90;;;;;;5113845;28;20169;-50
2022/10/17 00:05:45;;;;;;;13.57;9.65;;;15.60;99.90;;;;;;5095703;28;20255;-50
2022/10/17 00:08:12;;;;;;;20.60;10.05;;;15.60;99.90;;;;;;5113867;28;20169;-50
2022/10/17 00:10:38;;;;;;;11.48;9.63;;;15.70;99.90;;;;;;5095478;28;20570;-51
2022/10/17 00:13:04;;;;;;;10.75;8.48;;;15.60;99.90;;;;;;5113808;28;20188;-50
2022/10/17 00:15:30;;;;;;;20.73;10.45;;;15.60;99.90;;;;;;5113803;28;20211;-51
2022/10/17 00:17:56;;;;;;;12.75;8.25;;;15.50;99.90;;;;;;5114075;28;20168;-49
2022/10/17 00:20:21;;;;;;;12.93;9.23;;;15.60;99.90;;;;;;5113511;28;20250;-51
2022/10/17 00:22:47;;;;;;;13.25;8.75;;;15.60;99.90;;;;;;5113882;28;20225;-50
2022/10/17 00:25:12;;;;;;;11.18;8.90;;;15.60;99.90;;;;;;5113841;28;20628;-50
2022/10/17 00:27:40;;;;;;;13.48;8.23;;;15.50;99.90;;;;;;5113460;28;20175;-51
2022/10/17 00:30:10;;;;;;;11.38;7.85;;;15.60;99.90;;;;;;5095498;28;20222;-51
2022/10/17 00:32:36;;;;;;;11.48;8.18;;;15.60;99.90;;;;;;5113363;28;20628;-51
2022/10/17 00:35:02;;;;;;;9.60;7.90;;;15.50;99.90;;;;;;5113384;28;20161;-51
2022/10/17 00:37:30;;;;;;;11.15;8.77;;;15.60;99.90;;;;;;5113323;28;20221;-51
2022/10/17 00:39:55;;;;;;;13.40;7.93;;;15.50;99.90;;;;;;5113869;28;20175;-51
2022/10/17 00:42:23;;;;;;;8.43;7.35;;;15.50;99.90;;;;;;5113103;28;20200;-50
2022/10/17 00:44:49;;;;;;;11.20;7.13;;;15.50;99.90;;;;;;5113065;28;20169;-49
2022/10/17 00:47:19;;;;;;;10.30;7.72;;;15.50;99.90;;;;;;5113098;28;20176;-51
2022/10/17 00:49:46;;;;;;;10.65;7.85;;;15.50;99.90;;;;;;5113091;28;20184;-50
2022/10/17 00:52:17;;;;;;;18.20;9.05;;;15.50;99.90;;;;;;5113032;28;20198;-50
2022/10/17 00:54:47;;;;;;;10.30;7.72;;;15.40;99.90;;;;;;5112964;28;20182;-51
2022/10/17 00:57:14;;;;;;;12.55;8.45;;;15.50;99.90;;;;;;5112801;28;20204;-50
2022/10/17 00:59:46;;;;;;;11.32;8.60;;;15.40;99.90;;;;;;5112926;28;20561;-50
2022/10/17 01:02:14;;;;;;;9.88;8.20;;;15.40;99.90;;;;;;5113050;28;20249;-49
2022/10/17 01:04:46;;;;;;;10.73;8.00;;;15.40;99.90;;;;;;5112629;28;20169;-49
2022/10/17 01:07:11;;;;;;;10.60;7.63;;;15.40;99.90;;;;;;5112771;28;20168;-49
2022/10/17 01:09:38;;;;;;;8.70;7.68;;;15.40;99.90;;;;;;5112863;28;20167;-49
2022/10/17 01:12:24;;;;;;;10.65;7.78;;;15.30;99.90;;;;;;5112816;28;20620;-49
2022/10/17 01:15:15;;;;;;;11.68;8.38;;;15.40;99.90;;;;;;5112699;28;20160;-51
2022/10/17 01:17:50;;;;;;;11.02;7.97;;;15.40;99.90;;;;;;5112622;28;20161;-51
2022/10/17 01:20:24;;;;;;;11.30;7.78;;;15.40;99.90;;;;;;5112664;28;20188;-51
2022/10/17 01:23:16;;;;;;;14.73;8.75;;;15.40;99.90;;;;;;5112476;28;20168;-49
2022/10/17 01:26:09;;;;;;;9.50;7.63;;;15.40;99.90;;;;;;5111733;28;20183;-50
2022/10/17 01:29:06;;;;;;;9.40;7.80;;;15.40;99.90;;;;;;5112432;28;20192;-50
2022/10/17 01:31:41;;;;;;;15.18;8.02;;;15.50;99.90;;;;;;5112369;28;20185;-49
2022/10/17 01:34:18;;;;;;;8.60;7.70;;;15.50;99.90;;;;;;5094257;28;20175;-50
2022/10/17 01:37:17;;;;;;;10.88;7.78;;;15.40;99.90;;;;;;5112332;28;20176;-50
2022/10/17 01:39:54;;;;;;;13.50;7.80;;;15.40;99.90;;;;;;5085482;28;20230;-51
2022/10/17 01:42:32;;;;;;;9.18;7.97;;;15.30;99.90;;;;;;5112467;28;20207;-50
2022/10/17 01:45:05;;;;;;;12.27;8.00;;;15.30;99.90;;;;;;5112241;28;20160;-50
2022/10/17 01:47:33;;;;;;;16.10;8.35;;;15.30;99.90;;;;;;5093990;28;20179;-49
2022/10/17 01:50:08;;;;;;;11.52;8.38;;;15.20;99.90;;;;;;5094012;28;20182;-50
2022/10/17 01:53:10;;;;;;;14.70;8.60;;;15.30;99.90;;;;;;5112250;28;20168;-49
2022/10/17 01:55:39;;;;;;;14.23;8.25;;;15.20;99.90;;;;;;5069172;28;20176;-49
2022/10/17 01:58:28;;;;;;;10.82;8.70;;;15.20;99.90;;;;;;5111914;28;20231;-49
2022/10/17 02:00:56;;;;;;;10.60;8.15;;;15.20;99.90;;;;;;5099853;28;20227;-49
2022/10/17 02:03:24;;;;;;;11.02;7.68;;;15.20;99.90;;;;;;5112484;28;20519;-49
2022/10/17 02:05:50;;;;;;;14.15;8.13;;;15.20;99.90;;;;;;5112063;28;20573;-49
2022/10/17 02:08:25;;;;;;;11.02;8.13;;;15.20;99.90;;;;;;5112260;28;20164;-49
2022/10/17 02:11:00;;;;;;;10.48;8.43;;;15.20;99.90;;;;;;5111698;28;20209;-51
2022/10/17 02:13:31;;;;;;;12.15;8.27;;;15.10;99.90;;;;;;5112362;28;20256;-51
2022/10/17 02:16:23;;;;;;;10.93;8.35;;;15.20;99.90;;;;;;5112036;28;20210;-50
2022/10/17 02:19:01;;;;;;;17.33;8.93;;;15.20;99.90;;;;;;5115511;28;20165;-51
2022/10/17 02:21:39;;;;;;;10.55;8.52;;;15.20;99.90;;;;;;5116114;28;20210;-49
2022/10/17 02:24:18;;;;;;;13.15;9.15;;;15.20;99.90;;;;;;5115893;28;20190;-50
2022/10/17 02:26:55;;;;;;;10.55;8.27;;;15.10;99.90;;;;;;5115937;28;20183;-51
2022/10/17 02:29:37;;;;;;;11.98;8.73;;;15.10;99.90;;;;;;5115815;28;20489;-50
2022/10/17 02:32:16;;;;;;;11.95;8.43;;;15.20;99.90;;;;;;5115947;28;20169;-50
2022/10/17 02:34:51;;;;;;;10.30;8.80;;;15.20;99.90;;;;;;5115974;28;20222;-50
2022/10/17 02:37:20;;;;;;;9.68;8.07;;;15.10;99.90;;;;;;5115630;28;20160;-50
2022/10/17 02:39:46;;;;;;;9.40;8.20;;;15.20;99.90;;;;;;5115645;28;20247;-49
2022/10/17 02:42:13;;;;;;;11.57;8.52;;;15.10;99.90;;;;;;5115518;28;20204;-50
2022/10/17 02:44:42;;;;;;;12.88;8.30;;;15.10;99.90;;;;;;5097312;28;20523;-49
2022/10/17 02:47:49;;;;;;;11.63;8.63;;;15.10;99.90;;;;;;5115484;28;20278;-50
2022/10/17 02:50:15;;;;;;;10.82;8.32;;;15.10;99.90;;;;;;5115468;28;20211;-51
2022/10/17 02:53:09;;;;;;;9.70;8.07;;;15.10;99.90;;;;;;5115378;28;20643;-50
2022/10/17 02:55:42;;;;;;;12.70;9.18;;;15.00;99.90;;;;;;5112860;28;20647;-50
2022/10/17 02:58:13;;;;;;;10.85;7.68;;;15.00;99.90;;;;;;5115101;28;20216;-49
2022/10/17 03:00:40;;;;;;;11.85;8.32;;;15.00;99.90;;;;;;5115082;28;20197;-51
2022/10/17 03:03:24;;;;;;;13.23;8.48;;;14.90;99.90;;;;;;5115159;28;20161;-49
2022/10/17 03:05:50;;;;;;;9.52;7.70;;;14.90;99.90;;;;;;5115096;28;20761;-49
2022/10/17 03:08:15;;;;;;;15.68;8.32;;;14.90;99.90;;;;;;5115292;28;20204;-51
2022/10/17 03:10:41;;;;;;;11.88;9.70;;;14.90;99.90;;;;;;5114991;28;20496;-49
2022/10/17 03:13:06;;;;;;;11.40;8.63;;;14.90;99.90;;;;;;5115017;28;20160;-49
2022/10/17 03:15:32;;;;;;;12.75;8.43;;;15.00;99.90;;;;;;5114950;28;20171;-50
2022/10/17 03:17:57;;;;;;;9.95;8.27;;;15.00;99.90;;;;;;5114867;28;20168;-50
2022/10/17 03:20:23;;;;;;;12.35;9.02;;;15.00;99.90;;;;;;5115153;28;20168;-49
2022/10/17 03:22:48;;;;;;;13.77;9.77;;;15.10;99.90;;;;;;5114777;28;20173;-49
2022/10/17 03:25:14;;;;;;;11.00;8.63;;;15.10;99.90;;;;;;5102277;28;20222;-49
2022/10/17 03:27:39;;;;;;;11.55;8.32;;;15.10;99.90;;;;;;5094331;28;20290;-49
2022/10/17 03:30:06;;;;;;;12.75;7.47;;;15.10;99.90;;;;;;5094241;28;20234;-50
2022/10/17 03:32:34;;;;;;;13.30;8.35;;;15.10;99.90;;;;;;5094280;28;20169;-49
2022/10/17 03:35:00;;;;;;;9.70;8.20;;;15.30;99.90;;;;;;5094260;28;20166;-49
2022/10/17 03:37:26;;;;;;;10.77;7.22;;;15.30;99.90;;;;;;5094646;28;20173;-49
2022/10/17 03:39:51;;;;;;;8.65;6.68;;;16.20;99.90;;;;;;5094525;28;20176;-49
2022/10/17 03:42:17;;;;;;;10.85;7.00;;;15.40;99.90;;;;;;5094330;28;20213;-49
2022/10/17 03:44:42;;;;;;;9.70;7.40;;;15.40;99.90;;;;;;5094071;28;20168;-49
2022/10/17 03:47:08;;;;;;;9.40;7.13;;;15.40;99.90;;;;;;5094073;28;20311;-49
2022/10/17 03:49:34;;;;;;;7.57;6.75;;;15.40;99.90;;;;;;5093919;28;20207;-49
2022/10/17 03:51:59;;;;;;;11.57;7.38;;;15.40;99.90;;;;;;5093885;28;20161;-49
2022/10/17 03:54:25;;;;;;;12.80;7.07;;;15.40;99.90;;;;;;5094247;28;20620;-49
2022/10/17 03:56:50;;;;;;;8.57;6.72;;;15.30;99.90;;;;;;5093620;28;20208;-49
2022/10/17 03:59:16;;;;;;;10.93;7.30;;;15.40;99.90;;;;;;5093991;28;20578;-49
2022/10/17 04:01:42;;;;;;;8.50;7.22;;;15.30;99.90;;;;;;5093570;28;20732;-49
2022/10/17 04:04:08;;;;;;;7.15;6.38;;;15.40;99.90;;;;;;5093615;28;20157;-49
2022/10/17 04:06:34;;;;;;;8.25;6.85;;;15.40;99.90;;;;;;5093617;28;20268;-49
2022/10/17 04:09:00;;;;;;;11.13;6.68;;;12.80;99.90;;;;;;5093531;28;20228;-49
2022/10/17 04:11:25;;;;;;;9.68;7.40;;;15.30;99.90;;;;;;5093743;28;20177;-49
2022/10/17 04:13:56;;;;;;;10.68;7.03;;;13.10;99.90;;;;;;5093853;28;20158;-49
2022/10/17 04:16:22;;;;;;;12.70;6.65;;;15.40;99.90;;;;;;5075632;28;20169;-48
2022/10/17 04:18:55;;;;;;;11.00;6.35;;;15.40;99.90;;;;;;5093372;28;20161;-49
2022/10/17 04:21:22;;;;;;;10.80;6.63;;;15.30;99.90;;;;;;5093206;28;20193;-49
2022/10/17 04:23:47;;;;;;;7.65;6.43;;;15.30;99.90;;;;;;5092748;28;20187;-49
2022/10/17 04:26:13;;;;;;;8.60;6.82;;;15.40;99.90;;;;;;5093172;28;20529;-50
2022/10/17 04:28:38;;;;;;;6.22;5.20;;;15.40;99.90;;;;;;5093156;28;20173;-48
2022/10/17 04:31:07;;;;;;;11.18;6.65;;;15.60;99.90;;;;;;5093157;28;20197;-50
2022/10/17 04:33:34;;;;;;;10.75;6.78;;;15.50;99.90;;;;;;5093026;28;20215;-49
2022/10/17 04:36:01;;;;;;;7.43;6.05;;;15.40;99.90;;;;;;5092983;28;20161;-50
2022/10/17 04:38:28;;;;;;;9.00;6.35;;;15.40;99.90;;;;;;5092942;28;20517;-49
2022/10/17 04:40:56;;;;;;;10.57;6.20;;;15.30;99.90;;;;;;5092691;28;20594;-51
2022/10/17 04:43:21;;;;;;;8.35;7.00;;;15.30;99.90;;;;;;5092753;28;20520;-51
2022/10/17 04:45:47;;;;;;;14.60;7.82;;;15.40;99.90;;;;;;5092911;28;20173;-50
2022/10/17 04:48:12;;;;;;;11.25;7.90;;;15.30;99.90;;;;;;5092837;28;20625;-49
2022/10/17 04:50:38;;;;;;;12.95;8.57;;;15.30;99.90;;;;;;5092767;28;20658;-50
2022/10/17 04:53:03;;;;;;;10.90;8.15;;;15.30;99.90;;;;;;5092709;28;20165;-50
2022/10/17 04:55:29;;;;;;;8.05;6.90;;;15.50;99.90;;;;;;5092503;28;20165;-51
2022/10/17 04:57:54;;;;;;;13.05;8.13;;;15.50;99.90;;;;;;5092849;28;20225;-50
2022/10/17 05:00:20;;;;;;;12.80;8.50;;;15.60;99.90;;;;;;5092514;28;20196;-49
2022/10/17 05:02:45;;;;;;;8.10;6.53;;;15.50;99.90;;;;;;5092606;28;20205;-51
2022/10/17 05:05:11;;;;;;;10.48;6.30;;;15.50;99.90;;;;;;5092522;28;20170;-49
2022/10/17 05:07:40;;;;;;;9.77;7.10;;;15.50;99.90;;;;;;5092421;28;20649;-48
2022/10/17 05:10:06;;;;;;;12.48;6.90;;;15.50;99.90;;;;;;5092434;28;20161;-48
2022/10/17 05:12:32;;;;;;;10.40;7.80;;;15.50;99.90;;;;;;5092346;28;20180;-48
2022/10/17 05:14:57;;;;;;;11.77;7.40;;;15.50;99.90;;;;;;5092495;28;20173;-48
2022/10/17 05:17:23;;;;;;;17.02;10.52;;;15.60;99.90;;;;;;5092829;28;20624;-48
2022/10/17 05:19:49;;;;;;;7.38;6.50;;;15.50;99.90;;;;;;5092315;28;20176;-48
2022/10/17 05:22:14;;;;;;;9.02;6.13;;;15.40;99.90;;;;;;5092099;28;20680;-48
2022/10/17 05:24:40;;;;;;;8.05;6.25;;;15.40;99.90;;;;;;5092120;28;20161;-48
2022/10/17 05:27:05;;;;;;;9.30;6.43;;;15.40;99.90;;;;;;5092243;28;20169;-48
2022/10/17 05:29:31;;;;;;;8.48;6.40;;;15.40;99.90;;;;;;5092187;28;20191;-49
2022/10/17 05:31:57;;;;;;;7.57;6.47;;;15.40;99.90;;;;;;5092415;28;20557;-48
2022/10/17 05:34:23;;;;;;;9.95;6.03;;;15.40;99.90;;;;;;5092329;28;20614;-48
2022/10/17 05:36:49;;;;;;;11.57;6.22;;;15.40;99.90;;;;;;5092098;28;20509;-48
2022/10/17 05:39:18;;;;;;;9.02;6.07;;;15.40;99.90;;;;;;5091859;28;20170;-48
2022/10/17 05:41:44;;;;;;;8.35;6.88;;;15.40;99.90;;;;;;5091886;28;20548;-48
2022/10/17 05:44:10;;;;;;;10.80;7.80;;;15.40;99.90;;;;;;5091748;28;20166;-48
2022/10/17 05:46:35;;;;;;;10.23;6.22;;;15.40;99.90;;;;;;5091700;28;20169;-49
2022/10/17 05:49:01;;;;;;;8.05;6.13;;;15.40;99.90;;;;;;5091637;28;20621;-49
2022/10/17 05:51:26;;;;;;;8.65;6.22;;;15.40;99.90;;;;;;5091765;28;20605;-48
2022/10/17 05:53:52;;;;;;;7.32;6.28;;;15.40;99.90;;;;;;5095840;28;20157;-49
2022/10/17 05:56:19;;;;;;;6.63;5.85;;;15.40;99.90;;;;;;5095959;28;20199;-50
2022/10/17 05:58:45;;;;;;;13.38;6.90;;;15.40;99.90;;;;;;5095658;28;20236;-48
2022/10/17 06:01:11;;;;;;;7.88;6.38;;;15.50;99.90;;;;;;5095957;28;20204;-49
2022/10/17 06:03:37;;;;;;;11.75;6.72;;;15.50;99.90;;;;;;5095823;28;20165;-49
2022/10/17 06:06:08;;;;;;;19.05;10.20;;;15.40;99.90;;;;;;5095775;28;20158;-49
2022/10/17 06:08:34;;;;;;;13.50;7.40;;;15.40;99.90;;;;;;5095505;28;20177;-51
2022/10/17 06:11:00;;;;;;;16.35;8.63;;;15.40;99.90;;;;;;5095678;28;20693;-51
2022/10/17 06:13:26;;;;;;;8.88;6.82;;;15.30;99.90;;;;;;5095708;28;20583;-49
2022/10/17 06:15:51;;;;;;;16.27;10.23;;;15.40;99.90;;;;;;5096124;28;20184;-49
2022/10/17 06:18:17;;;;;;;23.33;11.75;;;15.40;99.90;;;;;;5095632;28;20173;-49
2022/10/17 06:20:43;;;;;;;13.38;7.32;;;15.40;99.90;;;;;;5095430;28;20197;-49
2022/10/17 06:23:08;;;;;;;18.85;10.35;;;15.50;99.90;;;;;;5095740;28;20176;-50
2022/10/17 06:25:34;;;;;;;14.70;8.88;;;15.40;99.90;;;;;;5095476;28;20161;-49
2022/10/17 06:27:59;;;;;;;11.00;8.10;;;15.40;99.90;;;;;;5095412;28;20165;-49
2022/10/17 06:30:25;;;;;;;16.13;7.53;;;15.50;99.90;;;;;;5095409;28;20264;-49
2022/10/17 06:32:51;;;;;;;10.85;6.63;;;15.60;99.90;;;;;;5095796;28;20172;-49
2022/10/17 06:35:17;;;;;;;7.57;6.07;;;15.60;99.90;;;;;;5095157;28;20174;-49
2022/10/17 06:37:43;;;;;;;6.95;5.45;;;15.80;99.90;;;;;;5095187;28;20158;-48
2022/10/17 06:40:11;;;;;;;8.32;5.93;;;15.70;99.90;;;;;;5095180;28;20694;-51
2022/10/17 06:42:37;;;;;;;7.10;5.80;;;15.90;99.90;;;;;;5095191;28;20209;-48
2022/10/17 06:45:03;;;;;;;12.07;7.47;;;16.00;99.90;;;;;;5095007;28;20211;-50
2022/10/17 06:47:29;;;;;;;11.60;6.97;;;16.00;99.90;;;;;;5077231;28;20161;-51
2022/10/17 06:49:54;;;;;;;19.13;10.35;;;15.90;99.90;;;;;;5095252;28;20161;-48
2022/10/17 06:52:20;;;;;;;12.68;6.15;;;16.10;99.90;;;;;;5095250;28;20218;-47
2022/10/17 06:54:45;;;;;;;10.00;5.60;;;16.10;99.90;;;;;;5092504;28;20768;-50
2022/10/17 06:57:11;;;;;;;10.02;4.65;;;16.20;99.90;;;;;;5093365;28;20695;-48
2022/10/17 06:59:37;;;;;;;10.35;7.10;;;16.30;99.90;;;;;;5093733;28;20222;-51
2022/10/17 07:02:02;;;;;;;8.68;5.38;;;16.30;99.90;;;;;;5093356;28;20205;-51
2022/10/17 07:04:28;;;;;;;6.53;5.13;;;16.40;99.90;;;;;;5092873;28;20153;-56
2022/10/17 07:06:53;;;;;;;6.88;5.00;;;16.40;99.90;;;;;;5093617;28;20169;-48
2022/10/17 07:09:19;;;;;;;15.85;6.43;;;16.40;99.90;;;;;;5093522;28;20166;-49
2022/10/17 07:11:45;;;;;;;10.38;6.93;;;16.50;99.90;;;;;;5093415;28;20169;-46
2022/10/17 07:14:10;;;;;;;7.65;4.80;;;16.40;99.90;;;;;;5093503;28;20259;-45
2022/10/17 07:16:36;;;;;;;10.00;6.82;;;16.50;99.90;;;;;;5093177;28;20165;-47
2022/10/17 07:19:02;;;;;;;8.63;5.70;;;16.50;99.90;;;;;;5093344;28;20171;-51
2022/10/17 07:21:28;;;;;;;8.20;6.50;;;16.50;99.90;;;;;;5092933;28;20262;-48
2022/10/17 07:23:53;;;;;;;17.98;9.35;;;16.50;99.90;;;;;;5093409;28;20578;-47
2022/10/17 07:26:19;;;;;;;11.18;6.45;;;16.50;99.90;;;;;;5092901;28;20173;-46
2022/10/17 07:28:47;;;;;;;10.75;6.28;;;16.60;99.90;;;;;;5092858;28;20172;-49
2022/10/17 07:31:15;;;;;;;10.10;5.75;;;16.60;99.90;;;;;;5092615;28;20173;-47
2022/10/17 07:33:42;;;;;;;12.65;7.32;;;16.60;99.90;;;;;;5092686;28;20222;-47
2022/10/17 07:36:08;;;;;;;9.85;6.10;;;16.70;99.90;;;;;;5092676;28;20170;-51
2022/10/17 07:38:35;;;;;;;12.25;7.03;;;16.80;99.90;;;;;;5092725;28;20732;-49
2022/10/17 07:41:03;;;;;;;16.20;6.72;;;16.90;99.90;;;;;;5092145;28;20201;-50
2022/10/17 07:43:29;;;;;;;9.10;6.57;;;16.90;99.90;;;;;;5098347;28;20220;-52
2022/10/17 07:45:54;;;;;;;10.93;6.38;;;17.00;99.90;;;;;;5113116;28;20173;-51
2022/10/17 07:48:21;;;;;;;8.27;5.35;;;17.10;99.90;;;;;;5113043;28;20248;-50
2022/10/17 07:50:47;;;;;;;14.90;7.82;;;17.10;99.90;;;;;;5110567;28;20777;-50
2022/10/17 07:53:13;;;;;;;9.15;6.00;;;17.10;99.90;;;;;;5112884;28;20157;-51
2022/10/17 07:55:40;;;;;;;14.88;8.13;;;17.20;99.90;;;;;;5112781;28;20541;-50
2022/10/17 07:58:06;;;;;;;15.35;8.52;;;17.30;99.90;;;;;;5097263;28;20213;-49
2022/10/17 08:00:32;;;;;;;10.55;5.78;;;17.40;99.90;;;;;;5102700;28;20260;-51
2022/10/17 08:02:58;;;;;;;9.32;6.75;;;17.50;99.90;;;;;;5112483;28;20275;-50
2022/10/17 08:05:24;;;;;;;12.95;6.93;;;17.50;99.90;;;;;;5112695;28;20244;-49
2022/10/17 08:07:49;;;;;;;14.45;7.63;;;17.60;99.90;;;;;;5112690;28;20699;-50
2022/10/17 08:10:15;;;;;;;19.95;12.23;;;17.60;99.90;;;;;;5110932;28;20161;-50
2022/10/17 08:12:41;;;;;;;42.92;32.15;;;17.70;99.90;;;;;;5112537;28;20169;-51
2022/10/17 08:15:08;;;;;;;18.17;11.20;;;17.80;99.90;;;;;;5100881;28;20264;-50
2022/10/17 08:17:35;;;;;;;11.35;6.57;;;17.90;99.90;;;;;;5091948;28;20255;-53
2022/10/17 08:20:01;;;;;;;9.75;5.65;;;17.90;99.90;;;;;;5091813;28;20169;-53
2022/10/17 08:22:26;;;;;;;5.90;4.60;;;18.00;99.90;;;;;;5091606;28;20209;-53
2022/10/17 08:24:52;;;;;;;12.00;5.30;;;18.00;99.90;;;;;;5092311;28;20651;-51
2022/10/17 08:27:23;;;;;;;11.45;5.88;;;18.00;99.90;;;;;;5091742;28;20532;-51
2022/10/17 08:29:51;;;;;;;6.30;5.15;;;18.20;99.90;;;;;;5091737;28;20169;-51
2022/10/17 08:32:18;;;;;;;5.95;4.85;;;18.30;99.90;;;;;;5091366;28;20169;-51
2022/10/17 08:34:43;;;;;;;6.88;4.70;;;18.20;99.90;;;;;;5091584;28;20259;-51
2022/10/17 08:37:09;;;;;;;7.97;4.40;;;17.70;99.90;;;;;;5091456;28;20252;-51
2022/10/17 08:39:34;;;;;;;7.22;4.88;;;18.30;99.90;;;;;;5091484;28;20165;-52
2022/10/17 08:42:12;;;;;;;5.13;4.40;;;18.40;99.90;;;;;;5091339;28;20209;-52
2022/10/17 08:44:50;;;;;;;6.68;4.80;;;18.30;99.90;;;;;;5091546;28;20223;-51
2022/10/17 08:47:33;;;;;;;12.68;4.65;;;18.30;99.90;;;;;;5091373;28;20206;-51
2022/10/17 08:50:02;;;;;;;4.57;4.05;;;18.30;99.90;;;;;;5091238;28;20185;-51
2022/10/17 08:52:34;;;;;;;4.68;3.50;;;18.30;99.90;;;;;;5091091;28;20165;-51
2022/10/17 08:55:00;;;;;;;6.13;3.42;;;18.40;99.90;;;;;;5091159;28;20169;-51
2022/10/17 08:57:27;;;;;;;7.05;3.53;;;18.40;99.90;;;;;;5090946;28;20228;-51
2022/10/17 08:59:53;;;;;;;6.75;3.47;;;18.50;99.90;;;;;;5091665;28;20178;-51
2022/10/17 09:02:48;;;;;;;6.65;3.38;;;18.60;99.90;;;;;;5091266;28;20212;-52
2022/10/17 09:05:30;;;;;;;6.07;3.30;;;18.70;99.90;;;;;;5072828;28;20220;-54
2022/10/17 09:08:34;;;;;;;4.72;3.08;;;18.80;99.90;;;;;;5100844;28;20181;-50
2022/10/17 09:11:12;;;;;;;3.88;2.80;;;18.80;99.90;;;;;;5111461;28;20237;-54
2022/10/17 09:13:53;;;;;;;7.05;3.05;;;18.80;99.90;;;;;;5111158;28;20188;-51
2022/10/17 09:16:32;;;;;;;3.55;3.22;;;19.00;99.90;;;;;;5110761;28;20186;-52
2022/10/17 09:19:07;;;;;;;4.05;3.00;;;19.10;99.90;;;;;;5111266;28;20169;-51
2022/10/17 09:21:44;;;;;;;6.35;3.10;;;19.20;99.90;;;;;;5110907;28;20235;-52
2022/10/17 09:24:24;;;;;;;4.38;3.10;;;19.20;99.90;;;;;;5111002;28;20164;-51
2022/10/17 09:26:51;;;;;;;8.05;3.40;;;19.20;99.90;;;;;;5111290;28;20175;-52
2022/10/17 09:29:25;;;;;;;4.35;2.85;;;19.20;99.90;;;;;;5110915;28;20173;-51
2022/10/17 09:32:02;;;;;;;3.83;3.10;;;19.40;99.90;;;;;;5090199;28;20180;-51
2022/10/17 09:34:30;;;;;;;5.20;3.22;;;19.20;99.90;;;;;;5090687;28;20177;-52
2022/10/17 09:36:58;;;;;;;7.95;4.07;;;19.20;99.90;;;;;;5090466;28;20246;-49
2022/10/17 09:39:25;;;;;;;5.50;3.10;;;19.30;99.90;;;;;;5090611;28;20523;-50
2022/10/17 09:41:55;;;;;;;5.00;2.95;;;19.30;99.90;;;;;;5090991;28;20213;-47
2022/10/17 09:44:40;;;;;;;5.68;3.63;;;19.20;99.90;;;;;;5090859;28;20215;-52
2022/10/17 09:47:24;;;;;;;7.38;3.30;;;19.30;99.90;;;;;;5090454;28;20172;-50
2022/10/17 09:49:50;;;;;;;8.23;4.03;;;19.30;99.90;;;;;;5090207;28;20419;-51
2022/10/17 09:52:33;;;;;;;5.75;3.35;;;19.40;99.90;;;;;;5072120;28;20171;-52
2022/10/17 09:55:03;;;;;;;7.38;3.00;;;19.30;99.90;;;;;;5090533;28;20523;-51
2022/10/17 09:57:59;;;;;;;9.40;3.60;;;19.30;99.90;;;;;;5090166;28;20217;-52
2022/10/17 10:00:39;;;;;;;3.85;3.30;;;19.30;99.90;;;;;;5090312;28;20211;-51
2022/10/17 10:03:11;;;;;;;3.50;2.95;;;19.30;99.90;;;;;;5090187;28;20177;-52
2022/10/17 10:05:37;;;;;;;6.90;3.50;;;19.30;99.90;;;;;;5090136;28;20541;-52
2022/10/17 10:08:12;;;;;;;6.70;3.63;;;19.40;99.90;;;;;;5090154;28;20169;-54
2022/10/17 10:10:42;;;;;;;8.10;3.42;;;19.40;99.90;;;;;;5090194;28;20643;-54
2022/10/17 10:13:13;;;;;;;5.70;3.10;;;19.60;99.90;;;;;;5089793;28;20196;-53
2022/10/17 10:15:41;;;;;;;6.82;3.42;;;19.50;99.90;;;;;;5089910;28;20177;-53
2022/10/17 10:18:25;;;;;;;5.38;2.88;;;19.60;99.90;;;;;;5089964;28;20473;-54
2022/10/17 10:21:10;;;;;;;6.07;3.83;;;19.60;99.90;;;;;;5089933;28;20772;-51
2022/10/17 10:23:38;;;;;;;7.57;3.13;;;19.60;99.90;;;;;;5090034;28;20173;-52
2022/10/17 10:26:21;;;;;;;7.93;4.18;;;19.60;99.90;;;;;;5090313;28;20163;-51
2022/10/17 10:29:31;;;;;;;6.15;3.80;;;19.60;99.90;;;;;;5089606;28;20252;-52
2022/10/17 10:32:24;;;;;;;7.00;4.05;;;19.60;99.90;;;;;;5071896;28;20173;-52
2022/10/17 10:35:06;;;;;;;4.20;3.25;;;19.60;99.90;;;;;;5090185;28;20153;-52
2022/10/17 10:37:40;;;;;;;3.85;2.92;;;19.60;99.90;;;;;;5089975;28;20169;-52
2022/10/17 10:40:20;;;;;;;5.25;3.08;;;19.70;99.90;;;;;;5075536;28;20176;-53
2022/10/17 10:42:55;;;;;;;5.30;3.65;;;19.60;99.90;;;;;;5093576;28;20287;-51
2022/10/17 10:45:39;;;;;;;4.20;3.40;;;19.70;99.90;;;;;;5094027;28;20199;-52
2022/10/17 10:48:26;;;;;;;6.90;3.25;;;19.70;99.90;;;;;;5093622;28;20759;-52
2022/10/17 10:50:56;;;;;;;7.38;3.20;;;19.70;99.90;;;;;;5093838;28;20169;-51
2022/10/17 10:53:46;;;;;;;6.53;4.32;;;19.70;99.90;;;;;;5093518;28;20256;-52
2022/10/17 10:56:19;;;;;;;7.70;3.38;;;19.60;99.90;;;;;;5093515;28;20168;-52
2022/10/17 10:59:00;;;;;;;5.88;3.97;;;19.70;99.90;;;;;;5093254;28;20228;-52
2022/10/17 11:02:04;;;;;;;5.50;2.88;;;19.60;99.90;;;;;;5074799;28;20557;-52
2022/10/17 11:05:00;;;;;;;8.40;3.30;;;19.60;99.90;;;;;;5093185;28;20191;-52
2022/10/17 11:07:33;;;;;;;9.25;3.47;;;19.60;99.90;;;;;;5085064;28;20185;-54
2022/10/17 11:10:16;;;;;;;9.85;4.00;;;19.60;99.90;;;;;;5093329;28;20243;-52
2022/10/17 11:12:48;;;;;;;8.95;3.55;;;19.70;99.90;;;;;;5093145;28;20162;-53
2022/10/17 11:15:19;;;;;;;3.78;3.40;;;19.70;99.90;;;;;;5093223;28;20166;-52
2022/10/17 11:17:58;;;;;;;5.38;3.05;;;19.80;99.90;;;;;;5092446;28;20199;-52
2022/10/17 11:20:31;;;;;;;5.03;3.17;;;19.80;99.90;;;;;;5093269;28;20197;-51
2022/10/17 11:23:33;;;;;;;6.88;3.85;;;19.80;99.90;;;;;;5092648;28;20196;-54
2022/10/17 11:26:09;;;;;;;6.72;3.05;;;19.90;99.90;;;;;;5088958;28;20184;-51
2022/10/17 11:28:35;;;;;;;3.78;2.85;;;19.80;99.90;;;;;;5092807;28;20173;-52
2022/10/17 11:31:08;;;;;;;5.93;3.55;;;19.80;99.90;;;;;;5092779;28;20529;-52
2022/10/17 11:33:43;;;;;;;8.13;3.25;;;19.80;99.90;;;;;;5092744;28;20252;-51
2022/10/17 11:36:10;;;;;;;8.43;3.17;;;19.80;99.90;;;;;;5092527;28;20172;-51
2022/10/17 11:38:45;;;;;;;5.03;3.08;;;20.00;99.90;;;;;;5092509;28;20193;-52
2022/10/17 11:41:28;;;;;;;4.97;2.95;;;19.90;99.90;;;;;;5092326;28;20193;-51
2022/10/17 11:43:59;;;;;;;5.40;2.92;;;17.10;99.90;;;;;;5092208;28;20169;-51
2022/10/17 11:46:27;;;;;;;4.90;3.20;;;20.00;99.90;;;;;;5092357;28;20161;-51
2022/10/17 11:49:04;;;;;;;7.00;3.00;;;20.00;99.90;;;;;;5092425;28;20172;-51
2022/10/17 11:51:41;;;;;;;7.70;3.38;;;19.90;99.90;;;;;;5091156;28;20508;-52
2022/10/17 11:54:15;;;;;;;5.85;3.20;;;19.90;99.90;;;;;;5091930;28;20531;-54
2022/10/17 11:56:48;;;;;;;11.90;4.45;;;19.90;99.90;;;;;;5091943;28;20203;-53
2022/10/17 11:59:27;;;;;;;9.82;4.18;;;19.80;99.90;;;;;;5092150;28;20168;-54
2022/10/17 12:01:59;;;;;;;9.02;4.38;;;19.80;99.90;;;;;;5092392;28;20833;-52
2022/10/17 12:04:45;;;;;;;12.15;3.90;;;19.80;99.90;;;;;;5092213;28;20173;-51
2022/10/17 12:07:35;;;;;;;11.38;3.40;;;19.80;99.90;;;;;;5060283;28;20264;-52
2022/10/17 12:10:32;;;;;;;2.65;2.40;;;19.80;99.90;;;;;;5091463;28;20164;-50
2022/10/17 12:13:27;;;;;;;4.18;3.00;;;19.80;99.90;;;;;;5091772;28;20162;-52
2022/10/17 12:15:56;;;;;;;10.43;3.72;;;19.80;99.90;;;;;;5091740;28;20507;-52
2022/10/17 12:18:28;;;;;;;6.63;3.03;;;19.90;99.90;;;;;;5092039;28;20166;-52
2022/10/17 12:20:58;;;;;;;6.22;3.00;;;19.90;99.90;;;;;;5091483;28;20280;-51
2022/10/17 12:23:29;;;;;;;6.53;3.17;;;20.00;99.90;;;;;;5091084;28;20161;-52
2022/10/17 12:26:00;;;;;;;9.75;3.17;;;20.00;99.90;;;;;;5091461;28;20664;-52
2022/10/17 12:28:43;;;;;;;6.85;2.63;;;20.00;99.90;;;;;;5091534;28;20572;-51
2022/10/17 12:31:14;;;;;;;4.88;2.65;;;20.00;99.90;;;;;;5091468;28;20176;-52
2022/10/17 12:33:55;;;;;;;9.30;2.80;;;19.90;99.90;;;;;;5091310;28;20613;-53
2022/10/17 12:36:21;;;;;;;5.97;2.88;;;19.80;99.90;;;;;;5091662;28;20184;-52
2022/10/17 12:38:48;;;;;;;8.75;2.78;;;19.80;99.90;;;;;;5091203;28;20161;-55
2022/10/17 12:41:14;;;;;;;6.30;2.60;;;19.80;99.90;;;;;;5091158;28;20193;-52
2022/10/17 12:43:49;;;;;;;6.78;2.70;;;19.70;99.90;;;;;;5072950;28;20176;-52
2022/10/17 12:46:40;;;;;;;6.07;2.65;;;19.70;99.90;;;;;;5091098;28;20160;-52
2022/10/17 12:49:41;;;;;;;6.28;2.90;;;19.70;99.90;;;;;;5083787;28;20177;-52
2022/10/17 12:52:21;;;;;;;3.72;2.47;;;19.70;99.90;;;;;;5090830;28;20165;-51
2022/10/17 12:54:48;;;;;;;5.40;2.50;;;19.70;99.90;;;;;;5091401;28;20234;-52
2022/10/17 12:57:38;;;;;;;4.18;2.47;;;19.70;99.90;;;;;;5090840;28;20216;-52
2022/10/17 13:00:15;;;;;;;4.85;2.85;;;19.60;99.90;;;;;;5079726;28;20185;-51
2022/10/17 13:02:41;;;;;;;6.88;2.60;;;19.70;99.90;;;;;;5089937;28;20204;-52